sensor_id;sensor_type;location;lat;lon;timestamp;pressure;altitude;pressure_sealevel;temperature;humidity
10510;BME280;5303;53.266;10.410;2024-03-02T00:01:09;100293.75;;;8.23;100.00
10510;BME280;5303;53.266;10.410;2024-03-02T00:03:11;100292.94;;;8.23;100.00
10510;BME280;5303;53.266;10.410;2024-03-02T00:05:18;100296.75;;;8.22;100.00
10510;BME280;5303;53.266;10.410;2024-03-02T00:07:19;100290.19;;;8.23;100.00
10510;BME280;5303;53.266;10.410;2024-03-02T00:09:19;100292.94;;;8.23;100.00
10510;BME280;5303;53.266;10.410;2024-03-02T00:11:20;100287.75;;;8.21;100.00
10510;BME280;5303;53.266;10.410;2024-03-02T00:13:21;100287.44;;;8.23;100.00
10510;BME280;5303;53.266;10.410;2024-03-02T00:15:46;100282.25;;;8.21;100.00
10510;BME280;5303;53.266;10.410;2024-03-02T00:17:52;100284.72;;;8.23;100.00
10510;BME280;5303;53.266;10.410;2024-03-02T00:19:53;100286.63;;;8.22;100.00
10510;BME280;5303;53.266;10.410;2024-03-02T00:21:53;100280.34;;;8.22;100.00
10510;BME280;5303;53.266;10.410;2024-03-02T00:23:53;100282.56;;;8.20;100.00
10510;BME280;5303;53.266;10.410;2024-03-02T00:25:54;100279.84;;;8.20;100.00
10510;BME280;5303;53.266;10.410;2024-03-02T00:27:55;100277.91;;;8.20;100.00
10510;BME280;5303;53.266;10.410;2024-03-02T00:29:56;100276.78;;;8.21;100.00
10510;BME280;5303;53.266;10.410;2024-03-02T00:31:57;100285.00;;;8.21;100.00
10510;BME280;5303;53.266;10.410;2024-03-02T00:34:02;100280.34;;;8.22;100.00
10510;BME280;5303;53.266;10.410;2024-03-02T00:36:04;100285.00;;;8.21;100.00
10510;BME280;5303;53.266;10.410;2024-03-02T00:38:05;100288.06;;;8.20;100.00
10510;BME280;5303;53.266;10.410;2024-03-02T00:40:06;100282.56;;;8.20;100.00
10510;BME280;5303;53.266;10.410;2024-03-02T00:42:08;100279.34;;;8.18;100.00
10510;BME280;5303;53.266;10.410;2024-03-02T00:44:12;100276.59;;;8.18;100.00
10510;BME280;5303;53.266;10.410;2024-03-02T00:46:16;100285.63;;;8.18;100.00
10510;BME280;5303;53.266;10.410;2024-03-02T00:48:17;100279.13;;;8.14;100.00
10510;BME280;5303;53.266;10.410;2024-03-02T00:50:18;100275.28;;;8.15;100.00
10510;BME280;5303;53.266;10.410;2024-03-02T00:52:19;100279.13;;;8.14;100.00
10510;BME280;5303;53.266;10.410;2024-03-02T00:54:20;100275.06;;;8.12;100.00
10510;BME280;5303;53.266;10.410;2024-03-02T00:56:21;100265.53;;;8.09;100.00
10510;BME280;5303;53.266;10.410;2024-03-02T00:58:22;100263.13;;;8.08;100.00
10510;BME280;5303;53.266;10.410;2024-03-02T01:00:22;100258.47;;;8.08;100.00
10510;BME280;5303;53.266;10.410;2024-03-02T01:02:22;100267.78;;;8.07;100.00
10510;BME280;5303;53.266;10.410;2024-03-02T01:04:22;100261.47;;;8.07;100.00
10510;BME280;5303;53.266;10.410;2024-03-02T01:06:22;100263.72;;;8.04;100.00
10510;BME280;5303;53.266;10.410;2024-03-02T01:08:23;100257.31;;;8.09;100.00
10510;BME280;5303;53.266;10.410;2024-03-02T01:10:24;100259.88;;;8.06;100.00
10510;BME280;5303;53.266;10.410;2024-03-02T01:12:25;100262.94;;;8.04;100.00
10510;BME280;5303;53.266;10.410;2024-03-02T01:14:26;100255.00;;;8.02;100.00
10510;BME280;5303;53.266;10.410;2024-03-02T01:16:26;100254.50;;;8.00;100.00
10510;BME280;5303;53.266;10.410;2024-03-02T01:18:26;100257.03;;;7.97;100.00
10510;BME280;5303;53.266;10.410;2024-03-02T01:20:27;100255.41;;;7.96;100.00
10510;BME280;5303;53.266;10.410;2024-03-02T01:22:27;100260.69;;;7.92;100.00
10510;BME280;5303;53.266;10.410;2024-03-02T01:24:27;100255.00;;;7.89;100.00
10510;BME280;5303;53.266;10.410;2024-03-02T01:26:28;100255.00;;;7.89;100.00
10510;BME280;5303;53.266;10.410;2024-03-02T01:28:28;100255.31;;;7.87;100.00
10510;BME280;5303;53.266;10.410;2024-03-02T01:30:29;100254.78;;;7.85;100.00
10510;BME280;5303;53.266;10.410;2024-03-02T01:32:29;100247.09;;;7.87;100.00
10510;BME280;5303;53.266;10.410;2024-03-02T01:34:29;100255.00;;;7.89;100.00
10510;BME280;5303;53.266;10.410;2024-03-02T01:36:30;100248.72;;;7.88;100.00
10510;BME280;5303;53.266;10.410;2024-03-02T01:38:30;100242.75;;;7.86;100.00
10510;BME280;5303;53.266;10.410;2024-03-02T01:40:34;100238.69;;;7.84;100.00
10510;BME280;5303;53.266;10.410;2024-03-02T01:42:36;100251.56;;;7.83;100.00
10510;BME280;5303;53.266;10.410;2024-03-02T01:44:37;100245.00;;;7.84;100.00
10510;BME280;5303;53.266;10.410;2024-03-02T01:46:37;100246.09;;;7.83;100.00
10510;BME280;5303;53.266;10.410;2024-03-02T01:48:37;100242.84;;;7.81;100.00
10510;BME280;5303;53.266;10.410;2024-03-02T01:50:37;100248.91;;;7.78;100.00
10510;BME280;5303;53.266;10.410;2024-03-02T01:52:38;100245.91;;;7.80;100.00
10510;BME280;5303;53.266;10.410;2024-03-02T01:54:38;100247.81;;;7.79;100.00
10510;BME280;5303;53.266;10.410;2024-03-02T01:56:38;100259.03;;;7.78;100.00
10510;BME280;5303;53.266;10.410;2024-03-02T01:58:39;100255.81;;;7.76;100.00
10510;BME280;5303;53.266;10.410;2024-03-02T02:00:39;100251.16;;;7.76;100.00
10510;BME280;5303;53.266;10.410;2024-03-02T02:02:40;100246.28;;;7.73;100.00
10510;BME280;5303;53.266;10.410;2024-03-02T02:04:40;100247.59;;;7.76;100.00
10510;BME280;5303;53.266;10.410;2024-03-02T02:06:41;100248.41;;;7.76;100.00
10510;BME280;5303;53.266;10.410;2024-03-02T02:08:41;100253.06;;;7.76;100.00
10510;BME280;5303;53.266;10.410;2024-03-02T02:10:41;100253.38;;;7.74;100.00
10510;BME280;5303;53.266;10.410;2024-03-02T02:12:41;100255.91;;;7.71;100.00
10510;BME280;5303;53.266;10.410;2024-03-02T02:14:48;100250.16;;;7.72;100.00
10510;BME280;5303;53.266;10.410;2024-03-02T02:16:50;100255.63;;;7.72;100.00
10510;BME280;5303;53.266;10.410;2024-03-02T02:18:50;100254.78;;;7.72;100.00
10510;BME280;5303;53.266;10.410;2024-03-02T02:20:50;100255.63;;;7.72;100.00
10510;BME280;5303;53.266;10.410;2024-03-02T02:24:55;100253.16;;;7.71;100.00
10510;BME280;5303;53.266;10.410;2024-03-02T02:26:55;100248.00;;;7.69;100.00
10510;BME280;5303;53.266;10.410;2024-03-02T02:28:55;100246.88;;;7.70;100.00
10510;BME280;5303;53.266;10.410;2024-03-02T02:30:55;100252.88;;;7.72;100.00
10510;BME280;5303;53.266;10.410;2024-03-02T02:32:56;100245.78;;;7.71;100.00
10510;BME280;5303;53.266;10.410;2024-03-02T02:34:57;100240.63;;;7.70;100.00
10510;BME280;5303;53.266;10.410;2024-03-02T02:36:57;100237.56;;;7.71;100.00
10510;BME280;5303;53.266;10.410;2024-03-02T02:38:59;100235.66;;;7.72;100.00
10510;BME280;5303;53.266;10.410;2024-03-02T02:41:03;100232.09;;;7.71;100.00
10510;BME280;5303;53.266;10.410;2024-03-02T02:43:03;100237.56;;;7.71;100.00
10510;BME280;5303;53.266;10.410;2024-03-02T02:45:05;100244.69;;;7.72;100.00
10510;BME280;5303;53.266;10.410;2024-03-02T02:47:05;100246.28;;;7.73;100.00
10510;BME280;5303;53.266;10.410;2024-03-02T02:49:05;100243.03;;;7.71;100.00
10510;BME280;5303;53.266;10.410;2024-03-02T02:51:06;100243.84;;;7.72;100.00
10510;BME280;5303;53.266;10.410;2024-03-02T02:53:06;100244.69;;;7.72;100.00
10510;BME280;5303;53.266;10.410;2024-03-02T02:55:10;100235.66;;;7.72;100.00
10510;BME280;5303;53.266;10.410;2024-03-02T02:57:11;100238.66;;;7.70;100.00
10510;BME280;5303;53.266;10.410;2024-03-02T02:59:11;100236.25;;;7.69;100.00
10510;BME280;5303;53.266;10.410;2024-03-02T03:01:11;100242.81;;;7.68;100.00
10510;BME280;5303;53.266;10.410;2024-03-02T03:03:11;100241.72;;;7.69;100.00
10510;BME280;5303;53.266;10.410;2024-03-02T03:05:13;100234.63;;;7.68;100.00
10510;BME280;5303;53.266;10.410;2024-03-02T03:07:14;100234.63;;;7.68;100.00
10510;BME280;5303;53.266;10.410;2024-03-02T03:09:14;100233.00;;;7.67;100.00
10510;BME280;5303;53.266;10.410;2024-03-02T03:11:14;100225.13;;;7.65;100.00
10510;BME280;5303;53.266;10.410;2024-03-02T03:13:15;100225.41;;;7.64;100.00
10510;BME280;5303;53.266;10.410;2024-03-02T03:15:15;100229.78;;;7.65;100.00
10510;BME280;5303;53.266;10.410;2024-03-02T03:17:16;100235.75;;;7.67;100.00
10510;BME280;5303;53.266;10.410;2024-03-02T03:19:17;100227.03;;;7.65;100.00
10510;BME280;5303;53.266;10.410;2024-03-02T03:21:17;100232.50;;;7.65;100.00
10510;BME280;5303;53.266;10.410;2024-03-02T03:23:17;100229.78;;;7.65;100.00
10510;BME280;5303;53.266;10.410;2024-03-02T03:25:18;100220.44;;;7.66;100.00
10510;BME280;5303;53.266;10.410;2024-03-02T03:27:18;100220.75;;;7.64;100.00
10510;BME280;5303;53.266;10.410;2024-03-02T03:29:19;100231.09;;;7.67;100.00
10510;BME280;5303;53.266;10.410;2024-03-02T03:31:20;100222.38;;;7.65;100.00
10510;BME280;5303;53.266;10.410;2024-03-02T03:33:20;100220.75;;;7.64;100.00
10510;BME280;5303;53.266;10.410;2024-03-02T03:35:20;100221.84;;;7.63;100.00
10510;BME280;5303;53.266;10.410;2024-03-02T03:37:20;100220.44;;;7.66;100.00
10510;BME280;5303;53.266;10.410;2024-03-02T03:39:21;100228.63;;;7.66;100.00
10510;BME280;5303;53.266;10.410;2024-03-02T03:41:21;100221.75;;;7.68;100.00
10510;BME280;5303;53.266;10.410;2024-03-02T03:43:21;100217.69;;;7.66;100.00
10510;BME280;5303;53.266;10.410;2024-03-02T03:45:21;100220.16;;;7.67;100.00
10510;BME280;5303;53.266;10.410;2024-03-02T03:47:22;100221.75;;;7.68;100.00
10510;BME280;5303;53.266;10.410;2024-03-02T03:49:22;100214.19;;;7.65;100.00
10510;BME280;5303;53.266;10.410;2024-03-02T03:51:22;100222.38;;;7.65;100.00
10510;BME280;5303;53.266;10.410;2024-03-02T03:53:25;100212.22;;;7.66;100.00
10510;BME280;5303;53.266;10.410;2024-03-02T03:55:25;100218.53;;;7.66;100.00
10510;BME280;5303;53.266;10.410;2024-03-02T03:57:26;100215.28;;;7.64;100.00
10510;BME280;5303;53.266;10.410;2024-03-02T03:59:26;100220.16;;;7.67;100.00
10510;BME280;5303;53.266;10.410;2024-03-02T04:01:27;100217.41;;;7.67;100.00
10510;BME280;5303;53.266;10.410;2024-03-02T04:03:27;100222.25;;;7.70;100.00
10510;BME280;5303;53.266;10.410;2024-03-02T04:05:27;100221.16;;;7.71;100.00
10510;BME280;5303;53.266;10.410;2024-03-02T04:07:27;100212.63;;;7.73;100.00
10510;BME280;5303;53.266;10.410;2024-03-02T04:09:28;100209.13;;;7.72;100.00
10510;BME280;5303;53.266;10.410;2024-03-02T04:11:28;100211.84;;;7.72;100.00
10510;BME280;5303;53.266;10.410;2024-03-02T04:13:28;100207.69;;;7.88;100.00
10510;BME280;5303;53.266;10.410;2024-03-02T04:15:28;100198.59;;;7.79;100.00
10510;BME280;5303;53.266;10.410;2024-03-02T04:17:30;100209.03;;;7.77;100.00
10510;BME280;5303;53.266;10.410;2024-03-02T04:19:31;100213.75;;;7.85;100.00
10510;BME280;5303;53.266;10.410;2024-03-02T04:21:31;100223.38;;;7.83;100.00
10510;BME280;5303;53.266;10.410;2024-03-02T04:23:31;100219.97;;;7.77;100.00
10510;BME280;5303;53.266;10.410;2024-03-02T04:25:31;100211.84;;;7.72;100.00
10510;BME280;5303;53.266;10.410;2024-03-02T04:27:32;100212.44;;;7.69;100.00
10510;BME280;5303;53.266;10.410;2024-03-02T04:29:33;100204.53;;;7.68;100.00
10510;BME280;5303;53.266;10.410;2024-03-02T04:31:33;100206.16;;;7.69;100.00
10510;BME280;5303;53.266;10.410;2024-03-02T04:33:33;100215.47;;;7.68;100.00
10510;BME280;5303;53.266;10.410;2024-03-02T04:35:34;100217.91;;;7.69;100.00
10510;BME280;5303;53.266;10.410;2024-03-02T04:37:34;100207.59;;;7.66;100.00
10510;BME280;5303;53.266;10.410;2024-03-02T04:39:35;100211.44;;;7.65;100.00
10510;BME280;5303;53.266;10.410;2024-03-02T04:41:35;100212.22;;;7.66;100.00
10510;BME280;5303;53.266;10.410;2024-03-02T04:43:36;100210.63;;;7.65;100.00
10510;BME280;5303;53.266;10.410;2024-03-02T04:45:38;100212.53;;;7.64;100.00
10510;BME280;5303;53.266;10.410;2024-03-02T04:47:38;100220.25;;;7.62;100.00
10510;BME280;5303;53.266;10.410;2024-03-02T04:49:38;100213.66;;;7.63;100.00
10510;BME280;5303;53.266;10.410;2024-03-02T04:51:38;100215.28;;;7.64;100.00
10510;BME280;5303;53.266;10.410;2024-03-02T04:53:39;100215.28;;;7.64;100.00
10510;BME280;5303;53.266;10.410;2024-03-02T04:55:39;100214.97;;;7.66;100.00
10510;BME280;5303;53.266;10.410;2024-03-02T04:57:39;100220.75;;;7.64;100.00
10510;BME280;5303;53.266;10.410;2024-03-02T04:59:39;100219.13;;;7.63;100.00
10510;BME280;5303;53.266;10.410;2024-03-02T05:01:40;100219.13;;;7.63;100.00
10510;BME280;5303;53.266;10.410;2024-03-02T05:03:40;100218.94;;;7.60;100.00
10510;BME280;5303;53.266;10.410;2024-03-02T05:05:40;100221.34;;;7.61;100.00
10510;BME280;5303;53.266;10.410;2024-03-02T05:07:41;100220.53;;;7.61;100.00
10510;BME280;5303;53.266;10.410;2024-03-02T05:09:42;100231.19;;;7.62;100.00
10510;BME280;5303;53.266;10.410;2024-03-02T05:11:42;100228.44;;;7.62;100.00
10510;BME280;5303;53.266;10.410;2024-03-02T05:13:56;100228.22;;;7.59;100.00
10510;BME280;5303;53.266;10.410;2024-03-02T05:15:56;100228.22;;;7.59;100.00
10510;BME280;5303;53.266;10.410;2024-03-02T05:17:57;100229.03;;;7.59;100.00
10510;BME280;5303;53.266;10.410;2024-03-02T05:19:58;100227.41;;;7.58;100.00
10510;BME280;5303;53.266;10.410;2024-03-02T05:21:58;100221.94;;;7.58;100.00
10510;BME280;5303;53.266;10.410;2024-03-02T05:23:59;100224.19;;;7.56;100.00
10510;BME280;5303;53.266;10.410;2024-03-02T05:25:59;100226.41;;;7.54;100.00
10510;BME280;5303;53.266;10.410;2024-03-02T05:27:59;100223.16;;;7.52;100.00
10510;BME280;5303;53.266;10.410;2024-03-02T05:30:00;100218.78;;;7.51;100.00
10510;BME280;5303;53.266;10.410;2024-03-02T05:32:01;100223.75;;;7.49;100.00
10510;BME280;5303;53.266;10.410;2024-03-02T05:34:01;100223.25;;;7.47;100.00
10510;BME280;5303;53.266;10.410;2024-03-02T05:36:03;100216.16;;;7.46;100.00
10510;BME280;5303;53.266;10.410;2024-03-02T05:38:03;100212.63;;;7.46;100.00
10510;BME280;5303;53.266;10.410;2024-03-02T05:40:04;100213.94;;;7.48;100.00
10510;BME280;5303;53.266;10.410;2024-03-02T05:42:05;100209.09;;;7.45;100.00
10510;BME280;5303;53.266;10.410;2024-03-02T05:44:06;100218.38;;;7.44;100.00
10510;BME280;5303;53.266;10.410;2024-03-02T05:46:06;100213.41;;;7.46;100.00
10510;BME280;5303;53.266;10.410;2024-03-02T05:48:07;100208.25;;;7.45;100.00
10510;BME280;5303;53.266;10.410;2024-03-02T05:50:07;100216.47;;;7.45;100.00
10510;BME280;5303;53.266;10.410;2024-03-02T05:52:08;100218.09;;;7.46;100.00
10510;BME280;5303;53.266;10.410;2024-03-02T05:54:08;100224.34;;;7.46;100.00
10510;BME280;5303;53.266;10.410;2024-03-02T05:56:08;100225.50;;;7.45;100.00
10510;BME280;5303;53.266;10.410;2024-03-02T05:58:09;100229.03;;;7.46;100.00
10510;BME280;5303;53.266;10.410;2024-03-02T06:00:25;100237.25;;;7.46;100.00
10510;BME280;5303;53.266;10.410;2024-03-02T06:02:26;100236.16;;;7.60;100.00
10510;BME280;5303;53.266;10.410;2024-03-02T06:04:26;100230.28;;;7.53;100.00
10510;BME280;5303;53.266;10.410;2024-03-02T06:06:26;100242.31;;;7.52;100.00
10510;BME280;5303;53.266;10.410;2024-03-02T06:08:26;100231.69;;;7.51;100.00
10510;BME280;5303;53.266;10.410;2024-03-02T06:10:27;100232.56;;;7.46;100.00
10510;BME280;5303;53.266;10.410;2024-03-02T06:12:27;100231.16;;;7.49;100.00
10510;BME280;5303;53.266;10.410;2024-03-02T06:14:27;100230.88;;;7.50;100.00
10510;BME280;5303;53.266;10.410;2024-03-02T06:16:27;100230.34;;;7.48;100.00
10510;BME280;5303;53.266;10.410;2024-03-02T06:18:28;100231.97;;;7.49;100.00
10510;BME280;5303;53.266;10.410;2024-03-02T06:20:28;100230.03;;;7.50;100.00
10510;BME280;5303;53.266;10.410;2024-03-02T06:22:31;100235.50;;;7.50;100.00
10510;BME280;5303;53.266;10.410;2024-03-02T06:24:32;100233.88;;;7.49;100.00
10510;BME280;5303;53.266;10.410;2024-03-02T06:26:32;100226.81;;;7.48;100.00
10510;BME280;5303;53.266;10.410;2024-03-02T06:28:32;100233.09;;;7.48;100.00
10510;BME280;5303;53.266;10.410;2024-03-02T06:30:32;100234.09;;;7.52;100.00
10510;BME280;5303;53.266;10.410;2024-03-02T06:32:33;100239.56;;;7.52;100.00
10510;BME280;5303;53.266;10.410;2024-03-02T06:34:33;100239.75;;;7.56;100.00
10510;BME280;5303;53.266;10.410;2024-03-02T06:36:34;100232.69;;;7.55;100.00
10510;BME280;5303;53.266;10.410;2024-03-02T06:38:34;100243.31;;;7.56;100.00
10510;BME280;5303;53.266;10.410;2024-03-02T06:40:34;100240.31;;;7.58;100.00
10510;BME280;5303;53.266;10.410;2024-03-02T06:42:35;100237.03;;;7.56;100.00
10510;BME280;5303;53.266;10.410;2024-03-02T06:44:36;100232.69;;;7.55;100.00
10510;BME280;5303;53.266;10.410;2024-03-02T06:46:36;100243.03;;;7.58;100.00
10510;BME280;5303;53.266;10.410;2024-03-02T06:48:36;100238.88;;;7.60;100.00
10510;BME280;5303;53.266;10.410;2024-03-02T06:50:36;100251.16;;;7.63;100.00
10510;BME280;5303;53.266;10.410;2024-03-02T06:52:37;100244.25;;;7.65;100.00
10510;BME280;5303;53.266;10.410;2024-03-02T06:54:37;100247.28;;;7.64;100.00
10510;BME280;5303;53.266;10.410;2024-03-02T06:56:37;100246.88;;;7.70;100.00
10510;BME280;5303;53.266;10.410;2024-03-02T06:58:39;100244.97;;;7.71;100.00
10510;BME280;5303;53.266;10.410;2024-03-02T07:00:39;100250.34;;;7.76;100.00
10510;BME280;5303;53.266;10.410;2024-03-02T07:02:39;100244.88;;;7.76;100.00
10510;BME280;5303;53.266;10.410;2024-03-02T07:04:42;100249.91;;;7.82;100.00
10510;BME280;5303;53.266;10.410;2024-03-02T07:06:43;100251.06;;;7.81;100.00
10510;BME280;5303;53.266;10.410;2024-03-02T07:08:43;100249.91;;;7.82;100.00
10510;BME280;5303;53.266;10.410;2024-03-02T07:10:43;100242.75;;;7.86;100.00
10510;BME280;5303;53.266;10.410;2024-03-02T07:12:44;100240.84;;;7.87;100.00
10510;BME280;5303;53.266;10.410;2024-03-02T07:14:44;100238.88;;;7.87;100.00
10510;BME280;5303;53.266;10.410;2024-03-02T07:16:57;100241.84;;;7.91;100.00
10510;BME280;5303;53.266;10.410;2024-03-02T07:18:57;100238.78;;;7.92;100.00
10510;BME280;5303;53.266;10.410;2024-03-02T07:20:59;100254.00;;;7.98;100.00
10510;BME280;5303;53.266;10.410;2024-03-02T07:23:01;100252.69;;;7.96;100.00
10510;BME280;5303;53.266;10.410;2024-03-02T07:25:01;100250.13;;;7.99;100.00
10510;BME280;5303;53.266;10.410;2024-03-02T07:27:02;100246.50;;;8.04;100.00
10510;BME280;5303;53.266;10.410;2024-03-02T07:29:04;100241.81;;;8.04;100.00
10510;BME280;5303;53.266;10.410;2024-03-02T07:31:04;100242.03;;;8.08;100.00
10510;BME280;5303;53.266;10.410;2024-03-02T07:33:05;100245.59;;;8.09;100.00
10510;BME280;5303;53.266;10.410;2024-03-02T07:35:05;100242.53;;;8.10;100.00
10510;BME280;5303;53.266;10.410;2024-03-02T07:37:06;100244.34;;;8.15;100.00
10510;BME280;5303;53.266;10.410;2024-03-02T07:39:06;100243.94;;;8.21;100.00
10510;BME280;5303;53.266;10.410;2024-03-02T07:41:08;100255.91;;;8.25;100.00
10510;BME280;5303;53.266;10.410;2024-03-02T07:43:09;100260.00;;;8.28;100.00
10510;BME280;5303;53.266;10.410;2024-03-02T07:45:09;100270.22;;;8.36;100.00
10510;BME280;5303;53.266;10.410;2024-03-02T07:47:09;100267.47;;;8.36;100.00
10510;BME280;5303;53.266;10.410;2024-03-02T07:49:10;100273.50;;;8.38;100.00
10510;BME280;5303;53.266;10.410;2024-03-02T07:51:10;100271.44;;;8.43;100.00
10510;BME280;5303;53.266;10.410;2024-03-02T07:53:10;100274.28;;;8.52;100.00
10510;BME280;5303;53.266;10.410;2024-03-02T07:55:11;100272.41;;;8.61;100.00
10510;BME280;5303;53.266;10.410;2024-03-02T07:57:11;100283.25;;;8.66;100.00
10510;BME280;5303;53.266;10.410;2024-03-02T07:59:12;100285.91;;;8.71;100.00
10510;BME280;5303;53.266;10.410;2024-03-02T08:01:12;100295.38;;;8.87;100.00
10510;BME280;5303;53.266;10.410;2024-03-02T08:03:13;100290.84;;;8.83;100.00
10510;BME280;5303;53.266;10.410;2024-03-02T08:05:14;100296.00;;;8.84;100.00
10510;BME280;5303;53.266;10.410;2024-03-02T08:07:14;100300.38;;;8.85;100.00
10510;BME280;5303;53.266;10.410;2024-03-02T08:09:14;100303.38;;;8.97;100.00
10510;BME280;5303;53.266;10.410;2024-03-02T08:11:15;100298.50;;;8.94;100.00
10510;BME280;5303;53.266;10.410;2024-03-02T08:13:15;100304.69;;;9.00;100.00
10510;BME280;5303;53.266;10.410;2024-03-02T08:15:15;100303.25;;;9.02;100.00
10510;BME280;5303;53.266;10.410;2024-03-02T08:17:16;100300.41;;;9.07;100.00
10510;BME280;5303;53.266;10.410;2024-03-02T08:19:16;100309.50;;;9.16;100.00
10510;BME280;5303;53.266;10.410;2024-03-02T08:21:17;100300.22;;;9.26;100.00
10510;BME280;5303;53.266;10.410;2024-03-02T08:23:17;100299.84;;;9.41;100.00
10510;BME280;5303;53.266;10.410;2024-03-02T08:25:17;100306.66;;;9.44;100.00
10510;BME280;5303;53.266;10.410;2024-03-02T08:27:18;100308.09;;;9.41;100.00
10510;BME280;5303;53.266;10.410;2024-03-02T08:29:18;100303.41;;;9.42;100.00
10510;BME280;5303;53.266;10.410;2024-03-02T08:31:18;100303.16;;;9.52;100.00
10510;BME280;5303;53.266;10.410;2024-03-02T08:33:19;100307.38;;;9.58;100.00
10510;BME280;5303;53.266;10.410;2024-03-02T08:35:19;100306.56;;;9.57;100.00
10510;BME280;5303;53.266;10.410;2024-03-02T08:37:19;100314.66;;;9.62;100.00
10510;BME280;5303;53.266;10.410;2024-03-02T08:39:19;100308.13;;;9.72;100.00
10510;BME280;5303;53.266;10.410;2024-03-02T08:41:21;100314.41;;;9.72;100.00
10510;BME280;5303;53.266;10.410;2024-03-02T08:43:21;100313.19;;;9.78;100.00
10510;BME280;5303;53.266;10.410;2024-03-02T08:45:22;100304.78;;;9.83;100.00
10510;BME280;5303;53.266;10.410;2024-03-02T08:47:23;100315.47;;;9.85;100.00
10510;BME280;5303;53.266;10.410;2024-03-02T08:49:23;100309.56;;;10.00;100.00
10510;BME280;5303;53.266;10.410;2024-03-02T08:51:23;100319.28;;;10.06;100.00
10510;BME280;5303;53.266;10.410;2024-03-02T08:53:24;100321.53;;;10.04;100.00
10510;BME280;5303;53.266;10.410;2024-03-02T08:55:24;100309.44;;;10.05;100.00
10510;BME280;5303;53.266;10.410;2024-03-02T08:57:24;100315.56;;;10.02;100.00
10510;BME280;5303;53.266;10.410;2024-03-02T08:59:24;100308.16;;;10.11;100.00
10510;BME280;5303;53.266;10.410;2024-03-02T09:01:25;100307.22;;;10.16;100.00
10510;BME280;5303;53.266;10.410;2024-03-02T09:03:25;100312.25;;;10.22;100.00
10510;BME280;5303;53.266;10.410;2024-03-02T09:05:26;100306.75;;;10.22;100.00
10510;BME280;5303;53.266;10.410;2024-03-02T09:07:26;100321.22;;;10.36;100.00
10510;BME280;5303;53.266;10.410;2024-03-02T09:09:26;100311.03;;;10.37;100.00
10510;BME280;5303;53.266;10.410;2024-03-02T09:11:26;100320.94;;;10.55;100.00
10510;BME280;5303;53.266;10.410;2024-03-02T09:13:27;100320.31;;;10.58;100.00
10510;BME280;5303;53.266;10.410;2024-03-02T09:15:27;100317.72;;;10.53;100.00
10510;BME280;5303;53.266;10.410;2024-03-02T09:17:28;100310.81;;;10.73;100.00
10510;BME280;5303;53.266;10.410;2024-03-02T09:19:28;100312.13;;;10.84;100.00
10510;BME280;5303;53.266;10.410;2024-03-02T09:21:28;100309.03;;;10.85;100.00
10510;BME280;5303;53.266;10.410;2024-03-02T09:23:30;100307.91;;;10.78;100.00
10510;BME280;5303;53.266;10.410;2024-03-02T09:25:30;100314.19;;;10.78;100.00
10510;BME280;5303;53.266;10.410;2024-03-02T09:27:30;100316.50;;;11.02;100.00
10510;BME280;5303;53.266;10.410;2024-03-02T09:29:30;100322.81;;;11.11;100.00
10510;BME280;5303;53.266;10.410;2024-03-02T09:31:31;100320.88;;;11.20;100.00
10510;BME280;5303;53.266;10.410;2024-03-02T09:33:31;100318.47;;;11.18;100.00
10510;BME280;5303;53.266;10.410;2024-03-02T09:35:32;100318.91;;;11.12;100.00
10510;BME280;5303;53.266;10.410;2024-03-02T09:37:32;100321.53;;;11.08;100.00
10510;BME280;5303;53.266;10.410;2024-03-02T09:39:32;100321.38;;;11.13;100.00
10510;BME280;5303;53.266;10.410;2024-03-02T09:41:33;100327.50;;;11.10;100.00
10510;BME280;5303;53.266;10.410;2024-03-02T09:43:33;100321.19;;;11.10;100.00
10510;BME280;5303;53.266;10.410;2024-03-02T09:45:33;100317.63;;;11.18;100.00
10510;BME280;5303;53.266;10.410;2024-03-02T09:47:34;100315.88;;;11.13;100.00
10510;BME280;5303;53.266;10.410;2024-03-02T09:49:34;100320.06;;;11.19;100.00
10510;BME280;5303;53.266;10.410;2024-03-02T09:51:35;100317.63;;;11.35;100.00
10510;BME280;5303;53.266;10.410;2024-03-02T09:53:37;100325.56;;;11.19;100.00
10510;BME280;5303;53.266;10.410;2024-03-02T09:55:37;100327.84;;;11.26;100.00
10510;BME280;5303;53.266;10.410;2024-03-02T09:57:39;100325.25;;;11.21;100.00
10510;BME280;5303;53.266;10.410;2024-03-02T09:59:42;100325.56;;;11.19;100.00
10510;BME280;5303;53.266;10.410;2024-03-02T10:02:02;100329.91;;;11.29;100.00
10510;BME280;5303;53.266;10.410;2024-03-02T10:04:05;100331.41;;;11.35;100.00
10510;BME280;5303;53.266;10.410;2024-03-02T10:06:21;100325.41;;;11.24;100.00
10510;BME280;5303;53.266;10.410;2024-03-02T10:08:22;100331.53;;;11.21;100.00
10510;BME280;5303;53.266;10.410;2024-03-02T10:10:22;100326.03;;;11.21;100.00
10510;BME280;5303;53.266;10.410;2024-03-02T10:12:22;100329.13;;;11.28;100.00
10510;BME280;5303;53.266;10.410;2024-03-02T10:14:22;100333.66;;;11.33;100.00
10510;BME280;5303;53.266;10.410;2024-03-02T10:16:23;100327.34;;;11.41;100.00
10510;BME280;5303;53.266;10.410;2024-03-02T10:18:26;100330.09;;;11.41;100.00
10510;BME280;5303;53.266;10.410;2024-03-02T10:20:28;100335.09;;;11.39;100.00
10510;BME280;5303;53.266;10.410;2024-03-02T10:22:29;100334.94;;;11.44;100.00
10510;BME280;5303;53.266;10.410;2024-03-02T10:24:42;100335.59;;;11.50;100.00
10510;BME280;5303;53.266;10.410;2024-03-02T10:26:44;100340.59;;;11.56;100.00
10510;BME280;5303;53.266;10.410;2024-03-02T10:28:48;100338.97;;;11.64;100.00
10510;BME280;5303;53.266;10.410;2024-03-02T10:30:48;100335.56;;;11.67;100.00
10510;BME280;5303;53.266;10.410;2024-03-02T10:32:53;100345.97;;;11.70;100.00